Time;durP1;ratioP1;P1;durP2;ratioP2;P2;SDS_P1;SDS_P2;PMS_P1;PMS_P2;Temp;Humidity;BMP_temperature;BMP_pressure;BME280_temperature;BME280_humidity;BME280_pressure;Samples;Min_cycle;Max_cycle;Signal;HPM_P1;HPM_P2
2021/09/22 00:00:55;;;;;;;12.70;11.60;;;;;;;5.54;100.00;99233.97;5116668;27;20212;-67
2021/09/22 00:03:25;;;;;;;11.80;10.70;;;;;;;5.57;100.00;99231.13;5115339;27;20232;-65
2021/09/22 00:05:53;;;;;;;12.67;11.20;;;;;;;5.62;100.00;99231.66;5078747;27;20224;-66
2021/09/22 00:08:21;;;;;;;11.67;10.57;;;;;;;5.60;100.00;99226.50;5109538;27;20228;-65
2021/09/22 00:10:49;;;;;;;11.33;10.23;;;;;;;5.58;100.00;99231.00;5116090;27;20201;-67
2021/09/22 00:13:17;;;;;;;11.57;10.47;;;;;;;5.54;100.00;99234.78;5114009;27;20213;-65
2021/09/22 00:15:45;;;;;;;11.83;10.73;;;;;;;5.46;100.00;99231.81;5101351;27;20232;-67
2021/09/22 00:18:14;;;;;;;11.53;10.37;;;;;;;5.37;100.00;99222.75;5114848;27;20233;-65
2021/09/22 00:20:43;;;;;;;11.17;10.07;;;;;;;5.42;100.00;99220.66;5079227;27;20922;-66
2021/09/22 00:23:11;;;;;;;12.17;11.07;;;;;;;5.41;100.00;99221.59;5111980;27;20618;-66
2021/09/22 00:25:39;;;;;;;11.47;10.27;;;;;;;5.38;100.00;99224.44;5107241;27;20201;-67
2021/09/22 00:28:07;;;;;;;11.70;10.57;;;;;;;5.31;100.00;99229.28;5117528;27;20209;-67
2021/09/22 00:30:36;;;;;;;12.10;10.90;;;;;;;5.26;100.00;99228.69;5101601;27;20518;-66
2021/09/22 00:33:06;;;;;;;12.43;11.10;;;;;;;5.28;100.00;99232.06;5116652;27;20284;-67
2021/09/22 00:35:34;;;;;;;10.97;10.07;;;;;;;5.22;100.00;99230.69;5112903;27;20671;-67
2021/09/22 00:38:03;;;;;;;11.67;10.67;;;;;;;5.21;100.00;99238.69;5077378;27;20213;-67
2021/09/22 00:40:32;;;;;;;12.17;11.07;;;;;;;5.35;100.00;99237.78;5106491;27;20197;-66
2021/09/22 00:43:00;;;;;;;11.53;10.50;;;;;;;5.51;100.00;99240.25;5115936;27;20208;-66
2021/09/22 00:45:29;;;;;;;11.37;10.37;;;;;;;5.41;100.00;99247.06;5108957;27;20493;-65
2021/09/22 00:47:57;;;;;;;11.57;10.57;;;;;;;5.32;100.00;99243.25;5105133;27;20580;-67
2021/09/22 00:50:26;;;;;;;11.37;10.27;;;;;;;5.28;100.00;99242.59;5094272;27;20211;-66
2021/09/22 00:52:54;;;;;;;10.93;9.90;;;;;;;5.28;100.00;99237.31;5080750;27;20252;-65
2021/09/22 00:55:23;;;;;;;11.30;10.20;;;;;;;5.27;100.00;99240.91;5109378;27;20433;-66
2021/09/22 00:57:53;;;;;;;11.57;10.47;;;;;;;5.19;100.00;99235.31;5114805;27;20201;-65
2021/09/22 01:00:24;;;;;;;12.50;11.30;;;;;;;5.15;100.00;99234.69;5114936;27;20229;-67
2021/09/22 01:02:53;;;;;;;11.63;10.50;;;;;;;5.20;100.00;99237.00;5102229;27;20616;-65
2021/09/22 01:05:23;;;;;;;11.27;10.27;;;;;;;5.11;100.00;99234.97;5114644;27;20870;-67
2021/09/22 01:07:52;;;;;;;11.37;10.27;;;;;;;5.07;100.00;99229.91;5100297;27;20266;-65
2021/09/22 01:10:21;;;;;;;12.30;11.20;;;;;;;5.12;100.00;99234.03;5093290;27;20829;-67
2021/09/22 01:12:51;;;;;;;12.40;11.20;;;;;;;5.12;100.00;99231.38;5110270;27;20422;-65
2021/09/22 01:15:27;;;;;;;10.77;9.77;;;;;;;5.04;100.00;99216.97;5092208;27;20215;-67
2021/09/22 01:17:55;;;;;;;12.03;10.63;;;;;;;5.00;100.00;99210.22;5112127;27;20201;-65
2021/09/22 01:20:23;;;;;;;11.83;10.67;;;;;;;4.93;100.00;99207.13;5099214;27;20209;-66
2021/09/22 01:22:52;;;;;;;10.57;9.60;;;;;;;4.92;100.00;99210.72;5114385;27;20212;-65
2021/09/22 01:25:21;;;;;;;11.50;10.30;;;;;;;4.87;100.00;99209.31;5099046;27;20206;-67
2021/09/22 01:27:50;;;;;;;11.80;10.70;;;;;;;4.84;100.00;99199.84;5106089;27;20566;-65
2021/09/22 01:30:18;;;;;;;11.90;10.80;;;;;;;4.83;100.00;99203.41;5089136;27;20209;-67
2021/09/22 01:32:51;;;;;;;11.97;10.87;;;;;;;4.85;100.00;99201.53;5112401;27;20228;-65
2021/09/22 01:35:19;;;;;;;12.27;11.17;;;;;;;4.86;100.00;99197.13;5111228;27;20231;-66
2021/09/22 01:37:48;;;;;;;11.33;10.23;;;;;;;4.82;100.00;99198.25;5109230;27;20235;-66
2021/09/22 01:40:18;;;;;;;10.80;9.87;;;;;;;4.86;100.00;99197.13;5103753;27;20237;-66
2021/09/22 01:42:47;;;;;;;11.23;10.20;;;;;;;4.78;100.00;99201.06;5110216;27;20197;-65
2021/09/22 01:45:17;;;;;;;11.77;10.73;;;;;;;4.76;100.00;99196.88;5074207;27;20464;-66
2021/09/22 01:47:45;;;;;;;10.93;9.93;;;;;;;4.73;100.00;99186.53;5109146;27;20216;-65
2021/09/22 01:50:15;;;;;;;11.13;10.13;;;;;;;4.68;100.00;99193.88;5106413;27;20221;-67
2021/09/22 01:52:43;;;;;;;12.50;11.20;;;;;;;4.76;100.00;99197.72;5105633;27;20304;-66
2021/09/22 01:55:12;;;;;;;12.60;11.40;;;;;;;4.75;100.00;99196.03;5102899;27;20947;-66
2021/09/22 01:57:41;;;;;;;12.27;11.07;;;;;;;4.67;100.00;99198.28;5112985;27;20235;-66
2021/09/22 02:00:10;;;;;;;11.90;10.47;;;;;;;4.67;100.00;99200.91;5073909;27;20255;-67
2021/09/22 02:02:38;;;;;;;11.60;10.23;;;;;;;4.65;100.00;99205.44;5110572;27;20528;-66
2021/09/22 02:05:07;;;;;;;11.30;10.03;;;;;;;4.67;100.00;99205.31;5108669;27;20386;-67
2021/09/22 02:07:35;;;;;;;11.80;10.70;;;;;;;4.61;100.00;99198.69;5110209;27;20205;-67
2021/09/22 02:10:05;;;;;;;11.93;10.87;;;;;;;4.56;100.00;99198.97;5099531;27;20216;-65
2021/09/22 02:12:33;;;;;;;11.13;10.07;;;;;;;4.58;100.00;99199.72;5109106;28;20237;-67
2021/09/22 02:15:03;;;;;;;12.30;11.10;;;;;;;4.69;100.00;99203.44;5075662;28;20202;-65
2021/09/22 02:17:32;;;;;;;12.10;10.80;;;;;;;4.60;100.00;99197.81;5104982;28;20221;-67
2021/09/22 02:20:00;;;;;;;11.67;10.57;;;;;;;4.50;100.00;99196.72;5110686;28;20258;-65
2021/09/22 02:22:28;;;;;;;11.97;10.77;;;;;;;4.47;100.00;99192.50;5114555;28;20205;-66
2021/09/22 02:24:56;;;;;;;11.50;10.50;;;;;;;4.41;100.00;99177.13;5105969;27;20203;-65
2021/09/22 02:27:24;;;;;;;12.50;11.30;;;;;;;4.41;100.00;99192.06;5111930;27;20208;-66
2021/09/22 02:29:52;;;;;;;11.63;10.40;;;;;;;4.36;100.00;99192.31;5091326;27;20604;-65
2021/09/22 02:32:23;;;;;;;11.57;10.40;;;;;;;4.33;100.00;99201.22;5099367;28;20209;-66
2021/09/22 02:34:52;;;;;;;11.87;10.77;;;;;;;4.32;100.00;99203.94;5110212;27;20672;-65
2021/09/22 02:37:21;;;;;;;12.27;11.07;;;;;;;4.22;100.00;99200.22;5110552;28;20387;-66
2021/09/22 02:39:50;;;;;;;10.73;9.73;;;;;;;4.18;100.00;99197.78;5110843;28;20320;-67
2021/09/22 02:42:18;;;;;;;13.00;11.63;;;;;;;4.16;100.00;99194.38;5084008;27;20208;-68
2021/09/22 02:44:46;;;;;;;12.17;11.07;;;;;;;4.24;100.00;99190.47;5109284;28;20236;-70
2021/09/22 02:47:15;;;;;;;12.70;11.43;;;;;;;4.22;100.00;99192.34;5078158;28;20216;-66
2021/09/22 02:49:44;;;;;;;11.37;10.20;;;;;;;4.30;100.00;99193.53;5103240;27;20238;-66
2021/09/22 02:52:12;;;;;;;10.67;9.57;;;;;;;4.19;100.00;99193.34;5116846;27;20200;-66
2021/09/22 02:54:40;;;;;;;11.67;10.53;;;;;;;4.13;100.00;99196.38;5113673;27;20205;-66
2021/09/22 02:57:09;;;;;;;11.07;9.97;;;;;;;4.09;100.00;99198.31;5106563;27;20220;-67
2021/09/22 02:59:37;;;;;;;11.03;9.93;;;;;;;4.09;100.00;99197.50;5114339;27;20461;-65
2021/09/22 03:02:05;;;;;;;11.57;10.57;;;;;;;4.11;100.00;99201.69;5082920;27;20221;-68
2021/09/22 03:04:34;;;;;;;10.70;9.60;;;;;;;4.10;100.00;99210.50;5109940;27;20871;-66
2021/09/22 03:07:03;;;;;;;11.57;10.53;;;;;;;4.14;100.00;99213.78;5116668;27;20467;-66
2021/09/22 03:09:32;;;;;;;10.00;9.10;;;;;;;4.08;100.00;99206.28;5116183;27;20220;-66
2021/09/22 03:12:00;;;;;;;11.27;10.17;;;;;;;4.10;100.00;99214.91;5116014;27;20465;-66
2021/09/22 03:14:28;;;;;;;12.33;10.73;;;;;;;4.12;100.00;99205.16;5106411;27;20634;-65
2021/09/22 03:16:56;;;;;;;12.03;10.70;;;;;;;4.15;100.00;99224.19;5112301;27;20860;-67
2021/09/22 03:19:24;;;;;;;13.70;10.80;;;;;;;4.18;100.00;99221.41;5081183;27;20240;-67
2021/09/22 03:21:52;;;;;;;10.87;9.77;;;;;;;4.10;100.00;99215.75;5062736;27;20213;-66
2021/09/22 03:24:21;;;;;;;11.93;10.83;;;;;;;4.12;100.00;99218.28;5113417;27;20208;-67
2021/09/22 03:26:49;;;;;;;13.63;10.63;;;;;;;4.17;100.00;99209.22;5105375;27;20409;-66
2021/09/22 03:29:17;;;;;;;12.60;10.73;;;;;;;4.18;100.00;99207.41;5114667;27;20233;-68
2021/09/22 03:31:45;;;;;;;12.07;10.80;;;;;;;4.22;100.00;99210.72;5113638;27;20304;-66
2021/09/22 03:34:13;;;;;;;13.23;10.33;;;;;;;4.26;100.00;99209.59;5111489;27;20890;-67
2021/09/22 03:36:41;;;;;;;10.80;9.80;;;;;;;4.30;100.00;99211.91;5065553;27;20386;-66
2021/09/22 03:39:09;;;;;;;11.47;10.40;;;;;;;4.48;100.00;99209.94;5112925;27;20422;-67
2021/09/22 03:41:38;;;;;;;11.50;10.50;;;;;;;4.58;100.00;99207.59;5117349;27;20883;-65
2021/09/22 03:44:06;;;;;;;11.53;10.23;;;;;;;4.59;100.00;99211.06;5107916;27;20204;-67
2021/09/22 03:46:34;;;;;;;10.50;9.40;;;;;;;4.70;100.00;99205.97;5116731;27;20197;-66
2021/09/22 03:49:02;;;;;;;12.57;11.27;;;;;;;4.78;100.00;99195.00;5114900;27;20228;-67
2021/09/22 03:51:31;;;;;;;11.67;10.47;;;;;;;4.86;100.00;99197.97;5084421;27;20231;-67
2021/09/22 03:53:58;;;;;;;11.47;9.80;;;;;;;4.78;100.00;99195.81;5109576;27;20206;-66
2021/09/22 03:56:27;;;;;;;11.47;10.47;;;;;;;4.86;100.00;99203.22;5113260;27;20205;-67
2021/09/22 03:58:56;;;;;;;10.33;9.33;;;;;;;4.90;100.00;99195.97;5101836;27;20240;-67
2021/09/22 04:01:24;;;;;;;11.33;10.23;;;;;;;4.93;100.00;99198.44;5115627;27;20209;-67
2021/09/22 04:03:52;;;;;;;11.33;10.20;;;;;;;4.95;100.00;99207.06;5110683;27;20216;-66
2021/09/22 04:06:21;;;;;;;11.80;10.60;;;;;;;4.95;100.00;99208.81;5115604;27;20217;-67
2021/09/22 04:08:50;;;;;;;11.33;10.43;;;;;;;5.03;100.00;99204.78;5077866;27;20229;-66
2021/09/22 04:11:18;;;;;;;13.53;10.23;;;;;;;5.01;100.00;99190.03;5115996;27;20723;-67
2021/09/22 04:13:46;;;;;;;11.40;10.30;;;;;;;4.85;100.00;99198.91;5103119;27;20197;-66
2021/09/22 04:16:15;;;;;;;10.20;9.17;;;;;;;4.83;100.00;99197.31;5116400;27;20208;-67
2021/09/22 04:18:43;;;;;;;12.13;11.03;;;;;;;4.88;100.00;99185.56;5114037;27;20588;-66
2021/09/22 04:21:11;;;;;;;11.67;10.57;;;;;;;4.98;100.00;99188.47;5113207;27;20612;-67
2021/09/22 04:23:39;;;;;;;10.60;9.57;;;;;;;4.90;100.00;99203.84;5076191;27;20205;-66
2021/09/22 04:26:07;;;;;;;11.13;10.13;;;;;;;4.97;100.00;99206.94;5112417;27;20201;-67
2021/09/22 04:28:35;;;;;;;11.10;10.00;;;;;;;4.84;100.00;99197.22;5102402;27;20225;-66
2021/09/22 04:31:03;;;;;;;10.47;9.40;;;;;;;4.87;100.00;99198.78;5112566;27;20418;-67
2021/09/22 04:33:33;;;;;;;14.60;10.73;;;;;;;4.98;100.00;99206.00;5111492;27;20585;-68
2021/09/22 04:36:01;;;;;;;10.57;9.57;;;;;;;5.05;100.00;99216.03;5107630;27;20449;-68
2021/09/22 04:38:29;;;;;;;11.43;10.33;;;;;;;5.07;100.00;99205.41;5063623;27;20708;-67
2021/09/22 04:40:58;;;;;;;11.37;10.20;;;;;;;5.17;100.00;99209.13;5105574;27;20410;-68
2021/09/22 04:43:26;;;;;;;11.47;10.47;;;;;;;5.12;100.00;99203.34;5113574;27;20209;-68
2021/09/22 04:45:54;;;;;;;11.50;10.40;;;;;;;5.07;100.00;99202.78;5095743;27;20617;-69
2021/09/22 04:48:23;;;;;;;11.10;10.03;;;;;;;5.13;100.00;99202.41;5109236;27;20238;-68
2021/09/22 04:50:52;;;;;;;10.87;9.80;;;;;;;5.30;100.00;99196.03;5103319;27;20593;-69
2021/09/22 04:53:20;;;;;;;11.37;10.17;;;;;;;5.31;100.00;99199.50;5079895;27;20213;-69
2021/09/22 04:55:48;;;;;;;11.10;10.10;;;;;;;5.34;100.00;99197.53;5105279;27;20377;-68
2021/09/22 04:58:16;;;;;;;11.13;10.13;;;;;;;5.53;100.00;99193.66;5114620;27;20314;-68
2021/09/22 05:00:44;;;;;;;11.37;10.23;;;;;;;5.43;100.00;99190.78;5101425;27;20208;-67
2021/09/22 05:03:13;;;;;;;11.10;10.10;;;;;;;5.41;100.00;99197.94;5108630;27;20634;-68
2021/09/22 05:05:41;;;;;;;10.40;9.30;;;;;;;5.39;100.00;99202.47;5110538;27;20201;-67
2021/09/22 05:08:10;;;;;;;11.67;10.53;;;;;;;5.64;100.00;99204.28;5104256;27;20588;-68
2021/09/22 05:10:38;;;;;;;10.97;9.97;;;;;;;5.57;100.00;99210.09;5076254;27;20312;-66
2021/09/22 05:13:07;;;;;;;10.93;9.93;;;;;;;5.50;100.00;99205.25;5109356;27;20648;-68
2021/09/22 05:15:35;;;;;;;10.73;9.53;;;;;;;5.46;100.00;99195.03;5099636;27;20216;-67
2021/09/22 05:18:03;;;;;;;11.67;10.60;;;;;;;5.53;100.00;99203.34;5114813;27;20695;-66
2021/09/22 05:20:31;;;;;;;13.00;11.23;;;;;;;5.63;100.00;99196.53;5114793;27;20224;-67
2021/09/22 05:22:59;;;;;;;10.57;9.63;;;;;;;5.82;100.00;99201.38;5102985;27;20294;-67
2021/09/22 05:25:30;;;;;;;11.37;10.17;;;;;;;5.75;100.00;99200.13;5078166;27;20213;-66
2021/09/22 05:27:59;;;;;;;12.20;10.67;;;;;;;5.94;100.00;99191.81;5077101;27;20689;-67
2021/09/22 05:30:27;;;;;;;12.77;11.40;;;;;;;5.79;100.00;99204.22;5109907;27;20405;-67
2021/09/22 05:32:55;;;;;;;11.00;9.90;;;;;;;5.86;100.00;99205.50;5101294;27;20280;-67
2021/09/22 05:35:43;;;;;;;11.53;9.67;;;;;;;5.96;100.00;99208.34;5113199;27;20891;-67
2021/09/22 05:38:11;;;;;;;11.47;10.33;;;;;;;5.95;100.00;99204.03;5097826;27;20247;-67
2021/09/22 05:40:40;;;;;;;11.83;10.43;;;;;;;5.97;100.00;99210.03;5115605;27;20491;-66
2021/09/22 05:43:08;;;;;;;10.73;9.73;;;;;;;6.16;100.00;99211.41;5075460;27;20212;-67
2021/09/22 05:45:36;;;;;;;11.17;10.07;;;;;;;6.13;100.00;99209.84;5114364;27;20224;-68
2021/09/22 05:48:05;;;;;;;11.13;10.03;;;;;;;6.37;100.00;99211.72;5113404;27;20204;-67
2021/09/22 05:50:33;;;;;;;11.77;10.67;;;;;;;6.23;100.00;99212.69;5114909;27;20437;-68
2021/09/22 05:53:01;;;;;;;11.90;10.63;;;;;;;6.51;100.00;99218.66;5103571;27;20515;-67
2021/09/22 05:55:29;;;;;;;11.60;10.43;;;;;;;6.51;100.00;99222.16;5112509;27;20443;-67
2021/09/22 05:57:58;;;;;;;11.83;10.67;;;;;;;6.41;100.00;99209.72;5110065;27;20712;-67
2021/09/22 06:00:27;;;;;;;10.67;9.37;;;;;;;6.43;100.00;99210.47;5093179;27;20399;-68
2021/09/22 06:02:55;;;;;;;12.10;10.53;;;;;;;6.51;100.00;99211.63;5098485;27;20385;-67
2021/09/22 06:05:23;;;;;;;11.53;10.43;;;;;;;6.57;100.00;99199.78;5108702;27;20783;-67
2021/09/22 06:07:51;;;;;;;11.23;9.90;;;;;;;6.43;100.00;99211.28;5108257;27;20205;-68
2021/09/22 06:10:19;;;;;;;10.83;9.93;;;;;;;6.49;100.00;99215.28;5094886;27;20229;-67
2021/09/22 06:12:47;;;;;;;13.90;9.90;;;;;;;6.58;100.00;99208.53;5112095;28;20201;-69
2021/09/22 06:15:16;;;;;;;11.57;10.47;;;;;;;6.83;100.00;99218.16;5078292;28;20364;-69
2021/09/22 06:17:44;;;;;;;11.37;10.27;;;;;;;6.71;100.00;99214.63;5112028;28;20744;-68
2021/09/22 06:20:13;;;;;;;11.10;10.03;;;;;;;6.65;100.00;99215.06;5112198;28;20534;-68
2021/09/22 06:22:41;;;;;;;11.97;10.87;;;;;;;6.65;100.00;99208.00;5110985;28;20573;-68
2021/09/22 06:25:10;;;;;;;11.87;10.77;;;;;;;6.75;100.00;99216.06;5098216;27;20703;-66
2021/09/22 06:27:38;;;;;;;11.30;10.23;;;;;;;7.01;100.00;99216.00;5119309;27;20204;-68
2021/09/22 06:30:07;;;;;;;10.67;9.77;;;;;;;7.06;100.00;99227.06;5079545;27;20735;-67
2021/09/22 06:32:37;;;;;;;11.73;10.33;;;;;;;7.15;100.00;99212.38;5114766;27;20196;-69
2021/09/22 06:35:07;;;;;;;12.77;10.40;;;;;;;7.30;100.00;99223.59;5114395;27;20315;-70
2021/09/22 06:37:35;;;;;;;10.83;9.73;;;;;;;7.31;100.00;99221.78;5115547;27;20204;-69
2021/09/22 06:40:05;;;;;;;10.33;9.43;;;;;;;7.26;100.00;99232.69;5100446;27;20553;-70
2021/09/22 06:42:33;;;;;;;13.87;10.37;;;;;;;7.35;100.00;99236.41;5117418;27;20705;-68
2021/09/22 06:45:02;;;;;;;10.27;9.37;;;;;;;7.43;100.00;99226.16;5090860;27;20205;-67
2021/09/22 06:47:30;;;;;;;10.17;9.17;;;;;;;7.48;100.00;99229.31;5111293;27;20201;-67
2021/09/22 06:49:59;;;;;;;10.83;9.73;;;;;;;7.40;100.00;99226.41;5117167;27;20538;-69
2021/09/22 06:52:29;;;;;;;10.13;9.23;;;;;;;7.62;100.00;99230.06;5115501;27;20843;-69
2021/09/22 06:54:57;;;;;;;10.50;9.40;;;;;;;7.79;100.00;99219.09;5101759;27;20301;-69
2021/09/22 06:57:25;;;;;;;11.10;9.57;;;;;;;7.67;100.00;99215.56;5112691;27;20213;-69
2021/09/22 06:59:53;;;;;;;10.70;9.60;;;;;;;7.68;100.00;99216.41;5117055;27;20224;-70
2021/09/22 07:02:21;;;;;;;10.70;9.73;;;;;;;7.85;100.00;99219.59;5081173;27;20231;-68
2021/09/22 07:04:50;;;;;;;10.40;9.40;;;;;;;7.95;100.00;99221.41;5113552;27;20210;-71
2021/09/22 07:07:19;;;;;;;12.30;11.13;;;;;;;8.11;100.00;99221.06;5115198;27;20209;-69
2021/09/22 07:09:47;;;;;;;10.13;9.23;;;;;;;8.17;100.00;99235.59;5115198;27;20771;-68
2021/09/22 07:12:15;;;;;;;12.03;10.93;;;;;;;8.30;100.00;99230.22;5098847;27;20512;-68
2021/09/22 07:14:44;;;;;;;10.27;9.30;;;;;;;8.44;100.00;99225.66;5112315;27;20197;-68
2021/09/22 07:17:12;;;;;;;12.07;10.33;;;;;;;8.57;100.00;99218.50;5076422;27;20209;-70
2021/09/22 07:19:40;;;;;;;12.67;9.43;;;;;;;8.51;100.00;99216.31;5110585;27;20224;-68
2021/09/22 07:22:08;;;;;;;11.33;9.87;;;;;;;8.77;100.00;99221.34;5111653;27;20201;-69
2021/09/22 07:24:37;;;;;;;10.97;9.87;;;;;;;8.87;100.00;99216.97;5111807;27;20205;-67
2021/09/22 07:27:05;;;;;;;11.33;10.27;;;;;;;9.20;100.00;99220.50;5099894;27;20216;-68
2021/09/22 07:29:33;;;;;;;11.33;10.23;;;;;;;9.40;100.00;99210.13;5111288;27;20850;-70
2021/09/22 07:32:01;;;;;;;10.63;9.63;;;;;;;9.60;100.00;99218.19;5093870;27;20292;-68
2021/09/22 07:34:30;;;;;;;9.47;8.47;;;;;;;9.72;100.00;99225.13;5065962;27;25332;-67
2021/09/22 07:37:10;;;;;;;10.83;9.83;;;;;;;9.71;100.00;99220.81;5101043;27;20612;-68
2021/09/22 07:39:40;;;;;;;11.43;10.27;;;;;;;9.71;100.00;99223.47;5114553;27;20337;-67
2021/09/22 07:42:12;;;;;;;10.43;9.50;;;;;;;9.88;100.00;99223.84;5107161;27;20208;-70
2021/09/22 07:44:40;;;;;;;11.37;10.33;;;;;;;9.96;100.00;99219.59;5115518;27;20208;-67
2021/09/22 07:47:08;;;;;;;10.93;10.03;;;;;;;10.04;100.00;99226.88;5117225;27;20197;-70
2021/09/22 07:49:36;;;;;;;9.47;8.57;;;;;;;10.15;100.00;99223.28;5114197;27;20359;-71
2021/09/22 07:52:05;;;;;;;10.33;9.33;;;;;;;10.09;100.00;99232.63;5079402;27;20217;-68
2021/09/22 07:54:33;;;;;;;10.13;9.13;;;;;;;10.15;100.00;99236.53;5111200;27;20699;-68
2021/09/22 07:57:02;;;;;;;10.13;9.23;;;;;;;10.28;100.00;99223.09;5103625;27;20208;-68
2021/09/22 07:59:30;;;;;;;11.07;8.83;;;;;;;10.42;100.00;99224.59;5110044;27;20621;-66
2021/09/22 08:01:59;;;;;;;10.13;9.03;;;;;;;10.48;100.00;99225.88;5113929;27;20595;-67
2021/09/22 08:04:27;;;;;;;11.23;10.20;;;;;;;10.75;100.00;99224.41;5112235;27;20204;-68
2021/09/22 08:06:58;;;;;;;10.40;9.47;;;;;;;10.67;100.00;99228.59;5077390;27;20205;-67
2021/09/22 08:09:26;;;;;;;9.83;9.03;;;;;;;10.78;100.00;99226.81;5107320;27;20636;-67
2021/09/22 08:11:54;;;;;;;10.77;9.77;;;;;;;10.90;100.00;99235.50;5102443;27;20215;-68
2021/09/22 08:14:35;;;;;;;11.00;9.10;;;;;;;10.89;100.00;99239.97;5107725;27;20488;-68
2021/09/22 08:17:04;;;;;;;10.40;9.57;;;;;;;11.11;100.00;99236.25;5116277;27;20454;-68
2021/09/22 08:19:33;;;;;;;10.63;9.63;;;;;;;11.15;100.00;99240.31;5113193;27;20460;-67
2021/09/22 08:22:01;;;;;;;9.73;8.47;;;;;;;11.34;100.00;99243.13;5116962;27;20200;-68
2021/09/22 08:24:29;;;;;;;9.20;8.30;;;;;;;11.37;100.00;99245.50;5073162;27;20209;-70
2021/09/22 08:26:58;;;;;;;9.80;9.00;;;;;;;11.34;100.00;99241.28;5115204;27;20197;-68
2021/09/22 08:29:25;;;;;;;11.97;9.07;;;;;;;11.53;100.00;99250.25;5099244;27;21238;-68
2021/09/22 08:31:55;;;;;;;9.60;8.53;;;;;;;11.79;100.00;99247.88;5110814;27;20201;-69
2021/09/22 08:34:23;;;;;;;10.67;9.73;;;;;;;11.60;100.00;99248.72;5109347;27;20645;-69
2021/09/22 08:36:51;;;;;;;9.13;8.33;;;;;;;11.69;100.00;99241.75;5113645;27;20653;-68
2021/09/22 08:39:20;;;;;;;10.03;9.13;;;;;;;12.21;100.00;99238.75;5071277;27;20722;-67
2021/09/22 08:41:49;;;;;;;9.10;8.23;;;;;;;12.30;100.00;99242.34;5110383;27;20205;-69
2021/09/22 08:44:18;;;;;;;9.10;8.33;;;;;;;12.68;100.00;99237.88;5102189;27;20692;-70
2021/09/22 08:46:46;;;;;;;10.67;9.70;;;;;;;12.53;100.00;99240.19;5112673;27;20689;-69
2021/09/22 08:49:16;;;;;;;11.73;8.67;;;;;;;12.78;100.00;99229.84;5113693;27;20739;-69
2021/09/22 08:51:45;;;;;;;9.30;8.40;;;;;;;12.91;100.00;99236.66;5114138;27;20480;-69
2021/09/22 08:54:14;;;;;;;9.97;8.97;;;;;;;13.09;100.00;99229.53;5073841;27;20224;-69
2021/09/22 08:56:43;;;;;;;8.50;7.80;;;;;;;13.06;100.00;99235.16;5107076;27;20421;-70
2021/09/22 08:59:14;;;;;;;10.27;7.63;;;;;;;13.21;100.00;99240.81;5100939;27;20252;-69
2021/09/22 09:01:42;;;;;;;9.33;8.43;;;;;;;13.35;100.00;99243.94;5107967;27;20225;-67
2021/09/22 09:04:16;;;;;;;8.33;7.53;;;;;;;13.11;100.00;99234.72;5112411;27;20201;-68
2021/09/22 09:06:45;;;;;;;10.17;8.27;;;;;;;13.43;100.00;99239.56;5110149;27;20509;-70
2021/09/22 09:09:14;;;;;;;9.40;8.50;;;;;;;13.62;100.00;99243.06;5095566;27;20586;-68
2021/09/22 09:11:44;;;;;;;7.77;7.17;;;;;;;13.54;100.00;99241.19;5093359;27;20641;-68
2021/09/22 09:14:13;;;;;;;7.90;7.13;;;;;;;13.59;100.00;99233.56;5100187;27;20212;-68
2021/09/22 09:16:43;;;;;;;7.70;7.00;;;;;;;13.93;100.00;99231.16;5113328;27;20767;-68
2021/09/22 09:19:13;;;;;;;7.60;6.80;;;;;;;14.11;100.00;99231.13;5110578;27;20220;-68
2021/09/22 09:21:57;;;;;;;7.10;5.90;;;;;;;14.31;100.00;99231.75;5113489;27;20456;-71
2021/09/22 09:24:33;;;;;;;7.07;6.33;;;;;;;14.54;100.00;99224.03;5076477;27;20296;-69
2021/09/22 09:27:02;;;;;;;6.87;6.27;;;;;;;14.67;100.00;99226.25;5109522;27;20600;-69
2021/09/22 09:29:30;;;;;;;7.77;6.00;;;;;;;14.63;100.00;99232.91;5100972;27;20444;-66
2021/09/22 09:32:18;;;;;;;8.20;6.83;;;;;;;14.93;100.00;99233.38;5115250;27;20255;-68
2021/09/22 09:35:06;;;;;;;6.63;6.13;;;;;;;14.68;100.00;99227.94;5112633;27;20740;-70
2021/09/22 09:37:37;;;;;;;7.27;6.67;;;;;;;14.77;100.00;99226.13;5107369;27;20279;-68
2021/09/22 09:40:25;;;;;;;8.43;6.37;;;;;;;14.98;100.00;99225.75;5113888;27;20240;-69
2021/09/22 09:42:55;;;;;;;7.20;6.63;;;;;;;15.09;100.00;99219.25;5116831;27;20193;-68
2021/09/22 09:45:24;;;;;;;7.43;6.63;;;;;;;15.18;100.00;99220.97;5069599;27;20208;-68
2021/09/22 09:48:03;;;;;;;7.47;6.20;;;;;;;15.25;100.00;99221.13;5111039;27;20207;-69
2021/09/22 09:50:37;;;;;;;11.43;6.50;;;;;;;15.43;100.00;99223.66;5110592;27;20435;-68
2021/09/22 09:53:07;;;;;;;6.60;5.97;;;;;;;15.43;100.00;99220.16;5114125;27;20201;-71
2021/09/22 09:55:38;;;;;;;6.47;5.87;;;;;;;15.48;100.00;99228.50;5110979;27;20330;-67
2021/09/22 09:58:07;;;;;;;7.73;6.93;;;;;;;15.46;100.00;99231.31;5115089;27;20208;-68
2021/09/22 10:00:47;;;;;;;6.77;6.17;;;;;;;15.31;100.00;99227.66;5073286;27;20826;-68
2021/09/22 10:03:17;;;;;;;6.87;6.17;;;;;;;15.32;100.00;99232.81;5105687;27;20530;-71
2021/09/22 10:05:47;;;;;;;6.40;5.90;;;;;;;15.44;100.00;99225.31;5111653;27;20386;-68
2021/09/22 10:08:18;;;;;;;5.53;5.03;;;;;;;15.56;100.00;99225.00;5106804;27;20647;-67
2021/09/22 10:10:49;;;;;;;6.13;5.57;;;;;;;15.66;100.00;99215.00;5104772;28;20205;-67
2021/09/22 10:13:18;;;;;;;8.00;5.80;;;;;;;15.58;100.00;99207.78;5107472;27;20231;-70
2021/09/22 10:15:47;;;;;;;5.10;4.67;;;;;;;15.70;100.00;99197.63;5076248;28;20205;-71
2021/09/22 10:18:17;;;;;;;5.27;4.80;;;;;;;15.69;100.00;99198.63;5105766;28;20229;-68
2021/09/22 10:20:49;;;;;;;5.57;5.07;;;;;;;15.61;100.00;99202.13;5111440;28;20448;-68
2021/09/22 10:23:22;;;;;;;5.97;4.90;;;;;;;15.77;100.00;99203.94;5109006;28;20280;-69
2021/09/22 10:25:50;;;;;;;5.17;4.43;;;;;;;16.13;100.00;99191.25;5113500;28;20209;-68
2021/09/22 10:28:33;;;;;;;7.50;5.37;;;;;;;16.09;100.00;99192.59;5110812;28;20224;-68
2021/09/22 10:31:01;;;;;;;4.83;4.17;;;;;;;16.37;100.00;99192.19;5072870;28;20267;-72
2021/09/22 10:33:32;;;;;;;5.13;4.60;;;;;;;16.24;100.00;99188.19;5104806;28;20873;-71
2021/09/22 10:36:01;;;;;;;6.37;4.37;;;;;;;16.45;100.00;99182.28;5115213;28;20197;-68
2021/09/22 10:38:49;;;;;;;5.50;5.00;;;;;;;16.27;100.00;99189.69;5109716;28;20231;-69
2021/09/22 10:41:30;;;;;;;5.50;4.90;;;;;;;16.04;100.00;99187.75;5107671;28;20229;-71
2021/09/22 10:43:58;;;;;;;5.80;4.20;;;;;;;16.35;100.00;99179.81;5109853;28;20205;-69
2021/09/22 10:46:30;;;;;;;4.17;3.17;;;;;;;16.63;100.00;99183.88;5073236;28;20220;-68
2021/09/22 10:49:16;;;;;;;4.57;3.33;;;;;;;16.41;100.00;99172.09;5108338;28;20698;-69
2021/09/22 10:51:46;;;;;;;3.80;3.10;;;;;;;16.43;100.00;99170.91;5110417;28;20624;-69
2021/09/22 10:54:17;;;;;;;3.60;3.30;;;;;;;16.35;100.00;99168.28;5108797;28;20237;-69
2021/09/22 10:56:54;;;;;;;6.27;3.87;;;;;;;16.15;100.00;99176.72;5108292;28;20449;-69
2021/09/22 10:59:31;;;;;;;5.33;3.63;;;;;;;16.00;100.00;99173.03;5106117;28;20580;-69
2021/09/22 11:02:00;;;;;;;3.50;3.13;;;;;;;15.99;100.00;99166.88;5077646;28;20283;-69
2021/09/22 11:04:52;;;;;;;4.03;3.30;;;;;;;16.25;100.00;99163.13;5103347;28;20421;-67
2021/09/22 11:07:21;;;;;;;3.93;3.10;;;;;;;16.32;100.00;99160.59;5109793;28;21216;-70
2021/09/22 11:09:51;;;;;;;2.70;2.60;;;;;;;16.52;100.00;99163.69;5111773;28;20224;-70
2021/09/22 11:12:19;;;;;;;3.73;3.27;;;;;;;16.03;100.00;99172.69;5112738;27;20890;-71
2021/09/22 11:14:51;;;;;;;4.97;3.30;;;;;;;16.29;100.00;99167.13;5117737;27;20573;-67
2021/09/22 11:17:21;;;;;;;4.77;3.10;;;;;;;16.47;100.00;99166.88;5082564;27;20511;-70
2021/09/22 11:19:52;;;;;;;5.27;3.80;;;;;;;16.58;100.00;99165.66;5108615;27;20734;-70
2021/09/22 11:22:21;;;;;;;3.07;2.77;;;;;;;16.59;100.00;99164.66;5113478;27;20232;-69
2021/09/22 11:24:54;;;;;;;4.07;3.30;;;;;;;16.78;100.00;99163.41;5115951;27;20216;-70
2021/09/22 11:27:23;;;;;;;3.97;3.50;;;;;;;16.85;100.00;99150.16;5112716;27;20581;-70
2021/09/22 11:29:52;;;;;;;4.27;3.30;;;;;;;16.87;100.00;99147.31;5118448;27;20224;-69
2021/09/22 11:32:32;;;;;;;6.03;3.33;;;;;;;16.88;100.00;99143.63;5084340;27;20220;-71